createdAt,value
2017-11-17T00:00:13.057Z,4.72
2017-11-17T00:02:47.561Z,4.70
2017-11-17T00:05:22.560Z,4.71
2017-11-17T00:07:56.944Z,4.74
2017-11-17T00:10:31.407Z,4.72
2017-11-17T00:13:05.956Z,4.77
2017-11-17T00:15:40.372Z,4.82
2017-11-17T00:18:14.728Z,4.89
2017-11-17T00:20:50.008Z,4.68
2017-11-17T00:23:24.607Z,4.74
2017-11-17T00:25:59.519Z,4.66
2017-11-17T00:28:34.097Z,4.52
2017-11-17T00:31:08.482Z,4.55
2017-11-17T00:33:42.925Z,4.52
2017-11-17T00:36:17.284Z,4.49
2017-11-17T00:38:51.683Z,4.54
2017-11-17T00:41:26.156Z,4.50
2017-11-17T00:44:00.548Z,4.63
2017-11-17T00:46:35.407Z,4.69
2017-11-17T00:49:09.884Z,4.63
2017-11-17T00:51:44.327Z,4.60
2017-11-17T00:54:18.694Z,4.44
2017-11-17T00:56:53.087Z,4.38
2017-11-17T00:59:27.562Z,4.36
2017-11-17T01:02:02.027Z,4.33
2017-11-17T01:04:36.599Z,4.38
2017-11-17T01:07:11.035Z,4.35
2017-11-17T01:09:45.524Z,4.37
2017-11-17T01:12:20.171Z,4.36
2017-11-17T01:14:54.569Z,4.31
2017-11-17T01:17:29.067Z,4.42
2017-11-17T01:22:44.084Z,4.17
2017-11-17T01:25:18.533Z,4.01
2017-11-17T01:27:53.074Z,3.95
2017-11-17T01:30:27.656Z,3.92
2017-11-17T01:33:02.203Z,3.90
2017-11-17T01:35:36.664Z,3.84
2017-11-17T01:38:11.039Z,3.78
2017-11-17T01:40:45.559Z,3.79
2017-11-17T01:43:20.125Z,3.82
2017-11-17T01:45:54.589Z,3.86
2017-11-17T01:48:28.947Z,3.81
2017-11-17T01:51:03.686Z,3.75
2017-11-17T01:53:38.210Z,3.74
2017-11-17T01:56:12.316Z,3.77
2017-11-17T01:58:46.883Z,3.71
2017-11-17T02:01:21.354Z,3.71
2017-11-17T02:03:55.859Z,3.72
2017-11-17T02:06:30.262Z,3.75
2017-11-17T02:09:03.883Z,3.65
2017-11-17T02:11:38.432Z,3.69
2017-11-17T02:14:12.959Z,3.67
2017-11-17T02:16:47.350Z,3.65
2017-11-17T02:19:22.035Z,3.61
2017-11-17T02:21:56.940Z,3.56
2017-11-17T02:24:31.039Z,3.61
2017-11-17T02:27:05.693Z,3.53
2017-11-17T02:29:39.591Z,3.45
2017-11-17T02:32:14.018Z,3.47
2017-11-17T02:34:49.109Z,3.38
2017-11-17T02:37:24.185Z,3.31
2017-11-17T02:39:58.732Z,3.24
2017-11-17T02:42:33.181Z,3.29
2017-11-17T02:45:13.800Z,3.30
2017-11-17T02:47:48.053Z,3.25
2017-11-17T02:50:21.934Z,3.22
2017-11-17T02:52:56.244Z,3.26
2017-11-17T02:55:30.303Z,3.38
2017-11-17T02:58:04.438Z,3.34
2017-11-17T03:00:38.810Z,3.32
2017-11-17T03:03:13.730Z,3.28
2017-11-17T03:05:47.814Z,3.11
2017-11-17T03:08:22.429Z,3.32
2017-11-17T03:10:57.031Z,3.37
2017-11-17T03:13:31.614Z,3.39
2017-11-17T03:16:05.706Z,3.36
2017-11-17T03:18:40.047Z,3.39
2017-11-17T03:21:14.471Z,3.50
2017-11-17T03:23:49.032Z,3.47
2017-11-17T03:26:23.211Z,3.59
2017-11-17T03:28:57.267Z,3.65
2017-11-17T03:31:31.838Z,3.58
2017-11-17T03:34:06.415Z,3.51
2017-11-17T03:36:40.771Z,3.40
2017-11-17T03:39:15.151Z,3.54
2017-11-17T03:41:49.534Z,3.53
2017-11-17T03:44:23.735Z,3.50
2017-11-17T03:46:59.155Z,3.45
2017-11-17T03:49:33.648Z,3.49
2017-11-17T03:52:08.013Z,3.49
2017-11-17T03:54:42.746Z,3.61
2017-11-17T03:57:17.247Z,3.65
2017-11-17T03:59:51.636Z,3.62
2017-11-17T04:02:26.008Z,3.63
2017-11-17T04:05:00.917Z,3.70
2017-11-17T04:07:35.323Z,3.77
2017-11-17T04:10:14.681Z,3.73
2017-11-17T04:12:49.090Z,3.70
2017-11-17T04:15:23.567Z,3.67
2017-11-17T04:17:57.684Z,3.56
2017-11-17T04:20:32.116Z,3.57
2017-11-17T04:23:06.492Z,3.63
2017-11-17T04:25:40.864Z,3.68
2017-11-17T04:28:15.445Z,3.51
2017-11-17T04:30:49.919Z,3.55
2017-11-17T04:33:24.467Z,3.63
2017-11-17T04:35:58.841Z,3.52
2017-11-17T04:38:33.339Z,3.39
2017-11-17T04:41:07.738Z,3.48
2017-11-17T04:43:42.218Z,3.56
2017-11-17T04:46:16.605Z,3.60
2017-11-17T04:48:51.143Z,3.63
2017-11-17T04:51:26.348Z,3.65
2017-11-17T04:54:00.983Z,3.58
2017-11-17T04:56:35.476Z,3.57
2017-11-17T04:59:09.899Z,3.63
2017-11-17T05:01:44.383Z,3.53
2017-11-17T05:04:18.995Z,3.63
2017-11-17T05:06:53.448Z,3.54
2017-11-17T05:09:28.054Z,3.58
2017-11-17T05:12:02.432Z,3.51
2017-11-17T05:14:36.961Z,3.42
2017-11-17T05:17:11.413Z,3.43
2017-11-17T05:19:45.800Z,3.42
2017-11-17T05:22:20.167Z,3.42
2017-11-17T05:24:54.507Z,3.38
2017-11-17T05:27:29.006Z,3.34
2017-11-17T05:30:03.502Z,3.40
2017-11-17T05:32:38.242Z,3.45
2017-11-17T05:35:12.802Z,3.41
2017-11-17T05:37:47.538Z,3.46
2017-11-17T05:40:21.920Z,3.45
2017-11-17T05:42:56.451Z,3.48
2017-11-17T05:45:31.228Z,3.42
2017-11-17T05:48:05.639Z,3.39
2017-11-17T05:50:40.083Z,3.42
2017-11-17T05:53:14.552Z,3.44
2017-11-17T05:55:48.960Z,3.48
2017-11-17T05:58:23.515Z,3.53
2017-11-17T06:00:57.902Z,3.50
2017-11-17T06:03:32.340Z,3.58
2017-11-17T06:06:07.572Z,3.62
2017-11-17T06:08:41.989Z,3.60
2017-11-17T06:11:16.368Z,3.65
2017-11-17T06:13:50.917Z,3.72
2017-11-17T06:16:25.308Z,3.71
2017-11-17T06:18:59.880Z,3.76
2017-11-17T06:21:34.228Z,3.63
2017-11-17T06:24:08.695Z,3.72
2017-11-17T06:26:43.273Z,3.81
2017-11-17T06:29:18.047Z,3.83
2017-11-17T06:31:52.515Z,3.76
2017-11-17T06:34:27.068Z,3.77
2017-11-17T06:37:01.529Z,3.73
2017-11-17T06:39:36.035Z,3.68
2017-11-17T06:42:12.112Z,3.83
2017-11-17T06:44:46.562Z,3.86
2017-11-17T06:47:21.588Z,3.82
2017-11-17T06:49:56.553Z,3.77
2017-11-17T06:52:31.115Z,3.76
2017-11-17T06:55:14.039Z,3.78
2017-11-17T06:57:48.389Z,3.80
2017-11-17T07:00:22.748Z,3.82
2017-11-17T07:02:57.191Z,3.80
2017-11-17T07:05:31.616Z,3.92
2017-11-17T07:08:06.139Z,3.92
2017-11-17T07:10:40.553Z,3.94
2017-11-17T07:13:15.937Z,3.94
2017-11-17T07:15:50.434Z,3.93
2017-11-17T07:18:25.008Z,3.91
2017-11-17T07:20:59.395Z,3.97
2017-11-17T07:23:33.961Z,3.95
2017-11-17T07:26:08.335Z,4.06
2017-11-17T07:28:42.684Z,4.02
2017-11-17T07:31:17.151Z,4.08
2017-11-17T07:33:51.696Z,4.07
2017-11-17T07:36:27.011Z,4.20
2017-11-17T07:39:01.516Z,4.07
2017-11-17T07:41:36.486Z,4.18
2017-11-17T07:44:11.087Z,4.20
2017-11-17T07:46:45.464Z,4.22
2017-11-17T07:49:20.004Z,4.22
2017-11-17T07:51:54.454Z,4.21
2017-11-17T07:54:28.994Z,4.30
2017-11-17T07:57:03.420Z,4.17
2017-11-17T07:59:37.993Z,4.12
2017-11-17T08:02:12.412Z,4.18
2017-11-17T08:04:46.550Z,4.19
2017-11-17T08:07:20.793Z,4.15
2017-11-17T08:09:55.249Z,4.20
2017-11-17T08:12:29.866Z,4.16
2017-11-17T08:15:13.416Z,4.21
2017-11-17T08:17:59.252Z,4.13
2017-11-17T08:20:33.759Z,4.25
2017-11-17T08:23:08.257Z,4.23
2017-11-17T08:25:42.653Z,4.21
2017-11-17T08:28:16.688Z,4.26
2017-11-17T08:30:51.704Z,4.34
2017-11-17T08:33:26.306Z,4.19
2017-11-17T08:36:00.861Z,4.25
2017-11-17T08:38:35.427Z,4.29
2017-11-17T08:41:09.903Z,4.42
2017-11-17T08:43:44.288Z,4.53
2017-11-17T08:46:18.771Z,4.49
2017-11-17T08:48:53.289Z,4.62
2017-11-17T08:51:27.703Z,4.62
2017-11-17T08:54:02.069Z,4.63
2017-11-17T08:56:36.860Z,4.50
2017-11-17T08:59:11.437Z,4.47
2017-11-17T09:01:45.935Z,4.52
2017-11-17T09:04:20.388Z,4.51
2017-11-17T09:06:54.763Z,4.43
2017-11-17T09:09:29.352Z,4.49
2017-11-17T09:12:03.901Z,4.63
2017-11-17T09:14:38.511Z,4.67
2017-11-17T09:17:12.912Z,4.77
2017-11-17T09:19:47.436Z,4.85
2017-11-17T09:22:21.863Z,4.98
2017-11-17T09:24:56.394Z,4.98
2017-11-17T09:27:30.839Z,5.07
2017-11-17T09:30:09.020Z,5.14
2017-11-17T09:32:43.530Z,5.21
2017-11-17T09:35:17.940Z,5.19
2017-11-17T09:37:52.975Z,5.34
2017-11-17T09:40:27.558Z,5.36
2017-11-17T09:43:02.912Z,5.39
2017-11-17T09:45:37.343Z,5.43
2017-11-17T09:48:11.870Z,5.51
2017-11-17T09:50:46.349Z,5.44
2017-11-17T09:53:20.815Z,5.43
2017-11-17T09:55:55.292Z,5.36
2017-11-17T09:58:29.808Z,5.41
2017-11-17T10:01:04.885Z,5.53
2017-11-17T10:03:39.683Z,5.54
2017-11-17T10:06:14.187Z,5.52
2017-11-17T10:08:48.632Z,5.56
2017-11-17T10:11:23.007Z,5.52
2017-11-17T10:13:57.495Z,5.51
2017-11-17T10:16:31.936Z,5.55
2017-11-17T10:19:06.427Z,5.60
2017-11-17T10:21:40.775Z,5.54
2017-11-17T10:24:15.016Z,5.53
2017-11-17T10:26:49.552Z,5.55
2017-11-17T10:29:23.950Z,5.48
2017-11-17T10:31:58.339Z,5.55
2017-11-17T10:34:32.971Z,5.52
2017-11-17T10:37:07.503Z,5.58
2017-11-17T10:39:41.991Z,5.61
2017-11-17T10:42:16.375Z,5.45
2017-11-17T10:44:50.740Z,5.49
2017-11-17T10:47:25.951Z,5.44
2017-11-17T10:50:00.689Z,5.50
2017-11-17T10:52:35.268Z,5.56
2017-11-17T10:55:13.864Z,5.67
2017-11-17T10:57:48.244Z,5.64
2017-11-17T11:00:23.064Z,5.81
2017-11-17T11:02:57.577Z,5.86
2017-11-17T11:05:31.854Z,5.92
2017-11-17T11:08:06.495Z,5.87
2017-11-17T11:10:40.852Z,5.72
2017-11-17T11:13:15.303Z,5.73
2017-11-17T11:15:49.700Z,5.91
2017-11-17T11:18:24.168Z,5.87
2017-11-17T11:20:59.558Z,5.99
2017-11-17T11:23:34.003Z,5.82
2017-11-17T11:26:08.416Z,5.62
2017-11-17T11:28:43.171Z,5.74
2017-11-17T11:31:17.648Z,5.90
2017-11-17T11:33:52.159Z,5.76
2017-11-17T11:36:26.259Z,5.71
2017-11-17T11:39:01.063Z,5.75
2017-11-17T11:41:35.887Z,5.65
2017-11-17T11:44:10.294Z,5.65
2017-11-17T11:46:44.680Z,5.60
2017-11-17T11:49:19.075Z,5.67
2017-11-17T11:51:53.716Z,5.73
2017-11-17T11:54:28.301Z,5.78
2017-11-17T11:57:02.679Z,5.75
2017-11-17T11:59:37.243Z,5.79
2017-11-17T12:02:11.676Z,5.79
2017-11-17T12:04:46.226Z,5.98
2017-11-17T12:07:20.687Z,5.86
2017-11-17T12:09:55.194Z,5.91
2017-11-17T12:12:29.607Z,6.07
2017-11-17T12:15:13.580Z,6.05
2017-11-17T12:17:47.955Z,6.14
2017-11-17T12:20:22.444Z,6.10
2017-11-17T12:22:56.950Z,6.10
2017-11-17T12:25:31.381Z,6.16
2017-11-17T12:28:05.906Z,6.10
2017-11-17T12:30:40.304Z,6.06
2017-11-17T12:33:14.855Z,5.92
2017-11-17T12:35:49.643Z,6.00
2017-11-17T12:38:24.186Z,5.99
2017-11-17T12:40:58.648Z,6.06
2017-11-17T12:43:33.227Z,5.97
2017-11-17T12:46:07.664Z,6.01
2017-11-17T12:48:42.116Z,5.93
2017-11-17T12:51:16.592Z,5.91
2017-11-17T12:53:51.641Z,5.91
2017-11-17T12:56:26.173Z,5.94
2017-11-17T12:59:00.679Z,5.83
2017-11-17T13:01:35.104Z,5.78
2017-11-17T13:04:09.524Z,5.71
2017-11-17T13:06:43.928Z,5.76
2017-11-17T13:09:18.381Z,5.67
2017-11-17T13:11:52.918Z,5.77
2017-11-17T13:14:27.404Z,5.92
2017-11-17T13:17:01.821Z,6.01
2017-11-17T13:19:36.379Z,5.95
2017-11-17T13:22:10.768Z,5.81
2017-11-17T13:24:45.481Z,5.88
2017-11-17T13:27:19.857Z,5.98
2017-11-17T13:29:54.495Z,6.02
2017-11-17T13:32:28.860Z,5.96
2017-11-17T13:37:44.160Z,6.22
2017-11-17T13:40:18.793Z,6.31
2017-11-17T13:42:53.177Z,6.20
2017-11-17T13:45:27.597Z,6.22
2017-11-17T13:48:02.195Z,6.14
2017-11-17T13:50:36.588Z,6.07
2017-11-17T13:53:10.758Z,6.08
2017-11-17T13:55:45.907Z,6.05
2017-11-17T13:58:20.368Z,5.96
2017-11-17T14:00:54.772Z,5.90
2017-11-17T14:03:29.329Z,5.73
2017-11-17T14:06:03.871Z,5.86
2017-11-17T14:08:38.439Z,5.79
2017-11-17T14:11:12.791Z,5.74
2017-11-17T14:13:47.404Z,5.60
2017-11-17T14:16:21.812Z,5.65
2017-11-17T14:18:56.423Z,5.45
2017-11-17T14:21:30.840Z,5.64
2017-11-17T14:24:05.433Z,5.61
2017-11-17T14:26:40.168Z,5.52
2017-11-17T14:29:14.809Z,5.60
2017-11-17T14:31:49.202Z,5.53
2017-11-17T14:34:23.827Z,5.58
2017-11-17T14:36:58.172Z,5.56
2017-11-17T14:39:34.851Z,5.63
2017-11-17T14:42:09.350Z,5.55
2017-11-17T14:44:43.780Z,5.58
2017-11-17T14:47:18.184Z,5.51
2017-11-17T14:49:52.667Z,5.54
2017-11-17T14:52:27.060Z,5.64
2017-11-17T14:55:01.455Z,5.54
2017-11-17T14:57:35.884Z,5.59
2017-11-17T15:00:13.463Z,5.14
2017-11-17T15:02:48.082Z,5.58
2017-11-17T15:05:26.700Z,5.57
2017-11-17T15:08:02.095Z,5.56
2017-11-17T15:10:37.022Z,5.59
2017-11-17T15:13:14.343Z,5.63
2017-11-17T15:15:48.870Z,5.49
2017-11-17T15:18:23.310Z,5.49
2017-11-17T15:20:58.595Z,5.50
2017-11-17T15:23:33.185Z,5.52
2017-11-17T15:26:07.674Z,5.45
2017-11-17T15:28:43.144Z,5.49
2017-11-17T15:31:18.638Z,5.50
2017-11-17T15:33:53.218Z,5.48
2017-11-17T15:36:27.658Z,5.49
2017-11-17T15:39:02.255Z,5.50
2017-11-17T15:41:36.875Z,5.48
2017-11-17T15:44:11.071Z,5.50
2017-11-17T15:46:45.502Z,5.58
2017-11-17T15:49:20.092Z,5.63
2017-11-17T15:51:54.483Z,5.26
2017-11-17T15:54:28.926Z,5.49
2017-11-17T15:57:03.100Z,5.47
2017-11-17T15:59:37.489Z,5.46
2017-11-17T16:02:11.898Z,5.51
2017-11-17T16:04:46.387Z,5.38
2017-11-17T16:07:20.669Z,5.50
2017-11-17T16:09:55.134Z,5.42
2017-11-17T16:12:29.589Z,5.48
2017-11-17T16:15:12.691Z,5.27
2017-11-17T16:17:47.267Z,5.45
2017-11-17T16:20:21.778Z,5.45
2017-11-17T16:22:56.307Z,5.44
2017-11-17T16:25:30.660Z,5.43
2017-11-17T16:28:05.237Z,5.50
2017-11-17T16:30:39.292Z,5.44
2017-11-17T16:33:14.586Z,5.41
2017-11-17T16:35:49.067Z,5.41
2017-11-17T16:38:24.440Z,5.47
2017-11-17T16:40:58.677Z,5.42
2017-11-17T16:43:33.125Z,5.44
2017-11-17T16:46:07.176Z,5.40
2017-11-17T16:48:41.723Z,5.41
2017-11-17T16:51:16.088Z,5.47
2017-11-17T16:53:50.596Z,5.43
2017-11-17T16:56:24.988Z,5.42
2017-11-17T16:58:59.568Z,5.41
2017-11-17T17:01:33.955Z,5.42
2017-11-17T17:04:08.443Z,5.43
2017-11-17T17:06:42.723Z,5.42
2017-11-17T17:09:17.193Z,5.43
2017-11-17T17:11:51.305Z,5.45
2017-11-17T17:14:25.816Z,5.44
2017-11-17T17:17:00.219Z,5.43
2017-11-17T17:19:34.683Z,5.44
2017-11-17T17:22:09.047Z,5.55
2017-11-17T17:24:43.460Z,5.52
2017-11-17T17:27:17.907Z,5.55
2017-11-17T17:29:52.359Z,5.45
2017-11-17T17:32:26.757Z,5.30
2017-11-17T17:35:01.317Z,5.47
2017-11-17T17:37:35.726Z,5.49
2017-11-17T17:40:13.151Z,5.45
2017-11-17T17:42:47.731Z,5.49
2017-11-17T17:45:22.192Z,5.37
2017-11-17T17:47:56.560Z,5.39
2017-11-17T17:50:30.953Z,5.37
2017-11-17T17:53:05.420Z,5.36
2017-11-17T17:55:39.817Z,5.25
2017-11-17T17:58:14.410Z,5.28
2017-11-17T18:00:48.427Z,5.32
2017-11-17T18:03:22.815Z,5.22
2017-11-17T18:05:57.176Z,5.16
2017-11-17T18:08:31.765Z,5.21
2017-11-17T18:11:06.515Z,5.20
2017-11-17T18:13:41.022Z,5.13
2017-11-17T18:16:15.410Z,5.05
2017-11-17T18:18:50.077Z,5.07
2017-11-17T18:21:24.473Z,4.97
2017-11-17T18:23:58.993Z,5.09
2017-11-17T18:26:34.376Z,5.10
2017-11-17T18:29:09.001Z,5.10
2017-11-17T18:31:43.529Z,5.05
2017-11-17T18:34:18.127Z,5.11
2017-11-17T18:36:52.634Z,5.07
2017-11-17T18:39:27.222Z,5.08
2017-11-17T18:42:02.227Z,5.15
2017-11-17T18:44:36.795Z,5.20
2017-11-17T18:47:11.545Z,5.15
2017-11-17T18:49:46.189Z,5.18
2017-11-17T18:52:21.030Z,5.24
2017-11-17T18:54:55.758Z,5.16
2017-11-17T18:57:30.185Z,4.96
2017-11-17T19:00:04.117Z,5.08
2017-11-17T19:02:43.122Z,5.13
2017-11-17T19:05:17.776Z,5.05
2017-11-17T19:07:53.315Z,5.06
2017-11-17T19:10:27.867Z,5.00
2017-11-17T19:13:02.363Z,5.00
2017-11-17T19:15:37.089Z,4.97
2017-11-17T19:18:12.200Z,4.97
2017-11-17T19:20:47.004Z,5.01
2017-11-17T19:23:21.615Z,5.00
2017-11-17T19:25:56.003Z,5.02
2017-11-17T19:28:30.459Z,5.10
2017-11-17T19:31:05.342Z,5.12
2017-11-17T19:33:48.580Z,5.06
2017-11-17T19:39:22.383Z,5.02
2017-11-17T19:42:04.108Z,5.03
2017-11-17T19:44:43.817Z,5.06
2017-11-17T19:47:27.062Z,5.14
2017-11-17T19:50:03.721Z,5.13
2017-11-17T19:52:38.579Z,5.14
2017-11-17T19:55:15.460Z,4.83
2017-11-17T19:57:49.972Z,5.07
2017-11-17T20:00:25.506Z,5.09
2017-11-17T20:03:00.677Z,5.01
2017-11-17T20:05:35.392Z,5.02
2017-11-17T20:08:09.837Z,4.92
2017-11-17T20:10:44.233Z,5.03
2017-11-17T20:13:19.316Z,5.05
2017-11-17T20:15:53.752Z,5.09
2017-11-17T20:18:28.373Z,5.10
2017-11-17T20:21:03.147Z,5.09
2017-11-17T20:23:37.924Z,5.03
2017-11-17T20:26:12.347Z,5.04
2017-11-17T20:28:47.032Z,5.04
2017-11-17T20:31:21.448Z,4.99
2017-11-17T20:34:05.819Z,5.00
2017-11-17T20:36:40.340Z,4.95
2017-11-17T20:39:14.828Z,4.97
2017-11-17T20:41:49.265Z,5.03
2017-11-17T20:44:23.813Z,4.99
2017-11-17T20:46:59.607Z,5.00
2017-11-17T20:49:34.243Z,4.98
2017-11-17T20:52:08.646Z,4.96
2017-11-17T20:54:43.172Z,4.96
2017-11-17T20:57:17.591Z,4.99
2017-11-17T20:59:52.144Z,5.01
2017-11-17T21:02:26.551Z,5.05
2017-11-17T21:05:01.114Z,5.03
2017-11-17T21:07:35.940Z,5.11
2017-11-17T21:10:15.077Z,5.08
2017-11-17T21:12:49.615Z,5.02
2017-11-17T21:15:24.347Z,5.05
2017-11-17T21:17:58.784Z,5.04
2017-11-17T21:20:33.177Z,5.02
2017-11-17T21:23:07.628Z,4.93
2017-11-17T21:25:42.435Z,4.98
2017-11-17T21:28:16.830Z,4.96
2017-11-17T21:30:51.356Z,5.00
2017-11-17T21:33:25.913Z,4.98
2017-11-17T21:36:00.360Z,4.94
2017-11-17T21:38:34.823Z,4.97
2017-11-17T21:41:09.243Z,5.03
2017-11-17T21:43:43.759Z,5.04
2017-11-17T21:46:19.447Z,4.97
2017-11-17T21:48:53.873Z,5.06
2017-11-17T21:51:28.277Z,5.07
2017-11-17T21:54:02.708Z,4.95
2017-11-17T21:56:37.079Z,4.95
2017-11-17T21:59:11.460Z,4.94
2017-11-17T22:01:45.816Z,4.97
2017-11-17T22:04:20.225Z,5.00
2017-11-17T22:06:54.598Z,5.05
2017-11-17T22:09:29.123Z,5.07
2017-11-17T22:12:03.475Z,5.01
2017-11-17T22:14:37.974Z,5.02
2017-11-17T22:17:12.393Z,5.03
2017-11-17T22:19:47.045Z,4.98
2017-11-17T22:22:21.452Z,4.99
2017-11-17T22:24:55.844Z,5.02
2017-11-17T22:27:30.304Z,4.94
2017-11-17T22:30:13.531Z,4.85
2017-11-17T22:32:48.075Z,4.84
2017-11-17T22:35:22.512Z,4.82
2017-11-17T22:37:57.084Z,4.76
2017-11-17T22:40:31.520Z,4.83
2017-11-17T22:43:06.105Z,4.81
2017-11-17T22:45:40.875Z,4.79
2017-11-17T22:48:15.257Z,4.74
2017-11-17T22:50:49.744Z,4.81
2017-11-17T22:53:24.254Z,4.76
2017-11-17T22:55:58.858Z,4.73
2017-11-17T22:58:33.522Z,4.88
2017-11-17T23:01:08.373Z,4.81
2017-11-17T23:03:43.096Z,4.96
2017-11-17T23:06:17.522Z,5.03
2017-11-17T23:08:52.214Z,5.07
2017-11-17T23:11:26.673Z,4.95
2017-11-17T23:14:01.052Z,4.96
2017-11-17T23:16:35.551Z,4.95
2017-11-17T23:19:10.375Z,4.96
2017-11-17T23:21:44.759Z,4.96
2017-11-17T23:24:19.181Z,4.89
2017-11-17T23:26:53.619Z,4.98
2017-11-17T23:29:28.128Z,5.14
2017-11-17T23:32:02.479Z,5.15
2017-11-17T23:34:37.116Z,5.13
2017-11-17T23:37:11.864Z,5.11
2017-11-17T23:39:46.462Z,5.12
2017-11-17T23:42:21.240Z,5.28
2017-11-17T23:44:55.794Z,5.34
2017-11-17T23:47:30.504Z,5.55
2017-11-17T23:50:13.425Z,5.50
2017-11-17T23:52:48.111Z,5.46
2017-11-17T23:55:22.499Z,5.51
2017-11-17T23:57:57.001Z,5.49
